Stanley, North Dakota
Current Conditions -  °F | °C
As of 9:15 PM on Thursday 27 Nov 2014 (Local Time) from K08D Reporting Station
Overcast Overcast  
Wind Chill: -5°   Ceiling: 900
Heat Index: 10°   Visibility: 10mi
Dew Point: 10°   Wind: 14mph
Humidity: 100%   Direction: 130°SE
Pressure: 29.85"   Gusts: NA
Location:  48.32°N, 102.39°W
Report Text: K08D 280315Z AUTO 13012KT 10SM OVC009 M12/M12 A2985 RMK AO2
Loading
Personal Weather Stations






























Interactive Weather Map New forecast layout! Learn more

10-Day Weather Forecast

Advertisements
Track Severe Weather on mobile